createdAt,value
2019-02-28T00:01:48.974Z,18.73
2019-02-28T00:04:18.487Z,22.87
2019-02-28T00:06:48.005Z,22.25
2019-02-28T00:09:17.596Z,22.95
2019-02-28T00:11:47.118Z,29.07
2019-02-28T00:14:16.634Z,23.85
2019-02-28T00:16:46.159Z,29.35
2019-02-28T00:19:15.692Z,22.15
2019-02-28T00:21:45.210Z,21.10
2019-02-28T00:24:14.730Z,24.47
2019-02-28T00:26:47.559Z,23.67
2019-02-28T00:29:15.474Z,26.30
2019-02-28T00:31:49.436Z,27.02
2019-02-28T00:34:16.299Z,23.40
2019-02-28T00:36:45.823Z,21.37
2019-02-28T00:39:16.318Z,25.10
2019-02-28T00:41:45.855Z,25.97
2019-02-28T00:44:15.383Z,26.60
2019-02-28T00:46:45.414Z,29.33
2019-02-28T00:49:15.987Z,26.93
2019-02-28T00:51:45.512Z,26.62
2019-02-28T00:54:15.027Z,26.15
2019-02-28T00:56:44.558Z,27.90
2019-02-28T00:59:14.155Z,29.52
2019-02-28T01:01:45.886Z,28.38
2019-02-28T01:04:14.888Z,32.80
2019-02-28T01:06:44.409Z,28.20
2019-02-28T01:09:13.937Z,36.95
2019-02-28T01:11:44.776Z,35.05
2019-02-28T01:14:14.679Z,29.82
2019-02-28T01:16:44.216Z,31.00
2019-02-28T01:19:13.743Z,32.78
2019-02-28T01:21:43.279Z,35.55
2019-02-28T01:24:12.794Z,37.23
2019-02-28T01:26:43.286Z,42.62
2019-02-28T01:29:13.549Z,38.45
2019-02-28T01:31:43.422Z,40.35
2019-02-28T01:34:13.030Z,39.20
2019-02-28T01:36:42.594Z,40.30
2019-02-28T01:39:12.106Z,45.10
2019-02-28T01:41:42.325Z,41.42
2019-02-28T01:44:13.264Z,38.70
2019-02-28T01:46:42.830Z,37.15
2019-02-28T01:49:12.343Z,41.00
2019-02-28T01:51:41.866Z,39.83
2019-02-28T01:54:11.393Z,42.38
2019-02-28T01:56:40.955Z,43.70
2019-02-28T01:59:10.478Z,42.73
2019-02-28T02:01:39.997Z,49.85
2019-02-28T02:04:12.555Z,38.63
2019-02-28T02:06:40.742Z,43.73
2019-02-28T02:09:11.037Z,40.28
2019-02-28T02:11:41.329Z,42.35
2019-02-28T02:14:11.796Z,41.18
2019-02-28T02:16:41.368Z,42.48
2019-02-28T02:19:10.909Z,45.45
2019-02-28T02:21:40.496Z,47.67
2019-02-28T02:24:10.020Z,45.03
2019-02-28T02:26:42.323Z,46.92
2019-02-28T02:29:11.723Z,44.40
2019-02-28T02:31:43.489Z,44.13
2019-02-28T02:34:12.498Z,48.38
2019-02-28T02:36:42.017Z,47.37
2019-02-28T02:39:16.390Z,45.70
2019-02-28T02:41:42.746Z,49.80
2019-02-28T02:44:12.263Z,50.10
2019-02-28T02:46:41.786Z,46.85
2019-02-28T02:49:18.487Z,51.20
2019-02-28T02:51:49.064Z,48.00
2019-02-28T02:54:19.624Z,50.20
2019-02-28T02:56:45.972Z,46.08
2019-02-28T02:59:15.503Z,50.00
2019-02-28T03:01:45.023Z,45.88
2019-02-28T03:04:21.680Z,53.70
2019-02-28T03:06:46.730Z,48.87
2019-02-28T03:09:16.309Z,53.90
2019-02-28T03:11:45.839Z,54.05
2019-02-28T03:14:17.223Z,51.53
2019-02-28T03:16:46.613Z,58.52
2019-02-28T03:19:16.159Z,60.08
2019-02-28T03:21:51.311Z,56.10
2019-02-28T03:24:16.898Z,58.68
2019-02-28T03:26:46.419Z,62.78
2019-02-28T03:29:15.989Z,66.40
2019-02-28T03:31:54.966Z,64.12
2019-02-28T03:34:16.721Z,63.28
2019-02-28T03:36:55.149Z,67.32
2019-02-28T03:39:24.202Z,70.17
2019-02-28T03:41:49.042Z,67.20
2019-02-28T03:44:21.753Z,70.75
2019-02-28T03:46:51.098Z,72.47
2019-02-28T03:49:20.610Z,71.92
2019-02-28T03:51:50.157Z,72.20
2019-02-28T03:54:19.672Z,77.00
2019-02-28T03:56:52.706Z,74.25
2019-02-28T03:59:20.413Z,77.10
2019-02-28T04:01:50.012Z,79.37
2019-02-28T04:04:19.556Z,76.20
2019-02-28T04:06:49.151Z,80.12
2019-02-28T04:09:18.694Z,81.20
2019-02-28T04:11:48.208Z,87.02
2019-02-28T04:14:17.737Z,85.32
2019-02-28T04:16:52.457Z,88.27
2019-02-28T04:19:22.625Z,87.17
2019-02-28T04:21:51.741Z,85.28
2019-02-28T04:24:21.309Z,93.37
2019-02-28T04:26:50.818Z,97.17
2019-02-28T04:29:20.350Z,83.33
2019-02-28T04:31:51.433Z,90.63
2019-02-28T04:34:21.095Z,92.62
2019-02-28T04:36:50.607Z,89.97
2019-02-28T04:39:22.847Z,92.67
2019-02-28T04:41:51.345Z,98.27
2019-02-28T04:44:20.860Z,98.05
2019-02-28T04:46:50.373Z,94.25
2019-02-28T04:49:22.695Z,98.42
2019-02-28T04:51:51.110Z,93.62
2019-02-28T04:54:20.639Z,103.22
2019-02-28T04:56:50.162Z,100.20
2019-02-28T04:59:19.693Z,99.35
2019-02-28T05:01:49.228Z,96.30
2019-02-28T05:04:18.762Z,96.57
2019-02-28T05:06:48.285Z,104.78
2019-02-28T05:09:17.819Z,94.87
2019-02-28T05:11:47.328Z,100.05
2019-02-28T05:14:16.865Z,99.97
2019-02-28T05:16:47.448Z,101.95
2019-02-28T05:19:17.591Z,105.05
2019-02-28T05:21:47.107Z,102.75
2019-02-28T05:24:16.626Z,112.15
2019-02-28T05:26:46.136Z,107.10
2019-02-28T05:29:15.675Z,110.20
2019-02-28T05:31:45.213Z,104.05
2019-02-28T05:34:16.002Z,105.47
2019-02-28T05:36:45.995Z,100.65
2019-02-28T05:39:15.531Z,106.92
2019-02-28T05:41:48.931Z,100.58
2019-02-28T05:44:16.332Z,104.10
2019-02-28T05:46:45.854Z,103.40
2019-02-28T05:49:15.394Z,100.40
2019-02-28T05:51:44.923Z,101.27
2019-02-28T05:54:16.969Z,103.38
2019-02-28T05:56:45.685Z,102.72
2019-02-28T05:59:15.216Z,100.12
2019-02-28T06:01:47.088Z,98.00
2019-02-28T06:04:15.956Z,96.55
2019-02-28T06:06:45.480Z,105.32
2019-02-28T06:09:15.040Z,95.50
2019-02-28T06:11:44.563Z,94.28
2019-02-28T06:14:14.078Z,99.00
2019-02-28T06:16:46.888Z,96.45
2019-02-28T06:19:14.840Z,94.85
2019-02-28T06:21:44.370Z,98.03
2019-02-28T06:24:13.871Z,93.58
2019-02-28T06:26:43.391Z,89.00
2019-02-28T06:29:12.903Z,105.72
2019-02-28T06:31:45.546Z,108.67
2019-02-28T06:34:13.642Z,115.95
2019-02-28T06:36:43.191Z,112.08
2019-02-28T06:39:12.723Z,113.47
2019-02-28T06:41:42.261Z,111.17
2019-02-28T06:44:11.799Z,119.75
2019-02-28T06:46:41.335Z,117.70
2019-02-28T06:49:10.863Z,115.32
2019-02-28T06:51:40.396Z,119.13
2019-02-28T06:54:09.929Z,118.05
2019-02-28T06:56:39.467Z,120.15
2019-02-28T06:59:08.976Z,114.60
2019-02-28T07:01:38.502Z,120.47
2019-02-28T07:04:08.018Z,126.97
2019-02-28T07:06:37.542Z,121.30
2019-02-28T07:09:07.387Z,116.12
2019-02-28T07:11:36.930Z,119.33
2019-02-28T07:14:06.461Z,112.85
2019-02-28T07:16:37.951Z,120.57
2019-02-28T07:19:07.218Z,119.77
2019-02-28T07:21:42.904Z,115.77
2019-02-28T07:24:08.751Z,122.70
2019-02-28T07:26:38.285Z,126.18
2019-02-28T07:29:11.113Z,124.95
2019-02-28T07:31:39.021Z,130.45
2019-02-28T07:34:08.559Z,122.98
2019-02-28T07:36:38.100Z,127.07
2019-02-28T07:39:07.775Z,128.27
2019-02-28T07:41:37.298Z,171.90
2019-02-28T07:44:06.829Z,131.63
2019-02-28T07:46:41.908Z,132.57
2019-02-28T07:49:07.567Z,126.18
2019-02-28T07:51:37.113Z,135.88
2019-02-28T07:54:06.700Z,139.62
2019-02-28T07:56:42.625Z,135.35
2019-02-28T07:59:07.442Z,128.35
2019-02-28T08:01:36.958Z,126.42
2019-02-28T08:04:06.479Z,137.00
2019-02-28T08:06:36.309Z,131.85
2019-02-28T08:09:16.444Z,137.82
2019-02-28T08:11:45.942Z,124.67
2019-02-28T08:14:15.466Z,126.58
2019-02-28T08:16:45.015Z,130.82
2019-02-28T08:19:14.548Z,135.68
2019-02-28T08:21:49.414Z,129.15
2019-02-28T08:24:15.340Z,128.17
2019-02-28T08:26:44.890Z,137.13
2019-02-28T08:29:14.509Z,133.00
2019-02-28T08:31:44.214Z,128.97
2019-02-28T08:34:13.760Z,125.92
2019-02-28T08:36:43.801Z,125.58
2019-02-28T08:39:19.032Z,131.10
2019-02-28T08:41:49.659Z,132.27
2019-02-28T08:44:22.768Z,133.17
2019-02-28T08:46:50.773Z,131.00
2019-02-28T08:49:20.320Z,135.13
2019-02-28T08:51:49.927Z,126.03
2019-02-28T08:54:19.478Z,120.25
2019-02-28T08:56:49.765Z,129.17
2019-02-28T08:59:22.564Z,132.10
2019-02-28T09:01:51.520Z,121.10
2019-02-28T09:04:21.095Z,130.80
2019-02-28T09:06:50.659Z,124.24
2019-02-28T09:09:20.394Z,126.45
2019-02-28T09:11:53.149Z,123.78
2019-02-28T09:14:22.304Z,122.15
2019-02-28T09:16:51.912Z,126.02
2019-02-28T09:19:21.562Z,127.80
2019-02-28T09:21:52.914Z,123.60
2019-02-28T09:24:22.343Z,130.43
2019-02-28T09:26:51.903Z,129.13
2019-02-28T09:29:22.239Z,124.73
2019-02-28T09:31:52.040Z,123.82
2019-02-28T09:34:21.777Z,119.93
2019-02-28T09:36:55.247Z,127.60
2019-02-28T09:39:22.574Z,120.30
2019-02-28T09:41:52.119Z,119.23
2019-02-28T09:44:21.688Z,117.05
2019-02-28T09:46:51.720Z,118.13
2019-02-28T09:49:21.214Z,112.52
2019-02-28T09:51:50.726Z,119.30
2019-02-28T09:54:21.383Z,121.07
2019-02-28T09:56:51.790Z,122.45
2019-02-28T09:59:21.702Z,119.40
2019-02-28T10:02:00.914Z,112.20
2019-02-28T10:04:23.227Z,112.63
2019-02-28T10:06:53.090Z,122.45
2019-02-28T10:09:23.173Z,110.00
2019-02-28T10:11:53.097Z,121.62
2019-02-28T10:14:25.624Z,116.80
2019-02-28T10:16:56.622Z,115.03
2019-02-28T10:19:28.139Z,114.33
2019-02-28T10:22:00.464Z,114.03
2019-02-28T10:24:31.475Z,116.30
2019-02-28T10:27:03.423Z,110.57
2019-02-28T10:29:32.616Z,117.50
2019-02-28T10:32:02.268Z,121.10
2019-02-28T10:34:36.446Z,115.03
2019-02-28T10:37:07.029Z,117.77
2019-02-28T10:39:36.783Z,111.30
2019-02-28T10:42:06.294Z,110.33
2019-02-28T10:44:41.349Z,113.95
2019-02-28T10:47:11.087Z,117.70
2019-02-28T10:49:48.796Z,119.90
2019-02-28T10:52:19.375Z,117.42
2019-02-28T10:54:49.375Z,109.10
2019-02-28T10:57:18.993Z,122.80
2019-02-28T10:59:48.634Z,112.73
2019-02-28T11:02:19.962Z,120.00
2019-02-28T11:04:49.541Z,116.77
2019-02-28T11:07:19.067Z,112.92
2019-02-28T11:09:48.671Z,116.42
2019-02-28T11:12:20.318Z,114.25
2019-02-28T11:14:49.432Z,120.92
2019-02-28T11:17:18.974Z,122.67
2019-02-28T11:19:52.003Z,116.67
2019-02-28T11:22:20.306Z,126.73
2019-02-28T11:24:50.160Z,126.00
2019-02-28T11:27:22.851Z,121.30
2019-02-28T11:29:55.573Z,119.77
2019-02-28T11:32:26.404Z,120.77
2019-02-28T11:34:59.577Z,119.50
2019-02-28T11:37:29.113Z,115.47
2019-02-28T11:39:58.659Z,116.33
2019-02-28T11:42:34.351Z,124.07
2019-02-28T11:45:03.971Z,124.20
2019-02-28T11:47:34.944Z,120.13
2019-02-28T11:50:07.681Z,114.73
2019-02-28T11:52:36.277Z,124.47
2019-02-28T11:55:07.043Z,122.17
2019-02-28T11:57:37.702Z,125.42
2019-02-28T14:38:58.581Z,112.30
2019-02-28T14:41:31.779Z,117.53
2019-02-28T14:43:59.434Z,116.95
2019-02-28T14:46:28.997Z,111.62
2019-02-28T14:48:58.546Z,106.83
2019-02-28T14:51:28.571Z,114.17
2019-02-28T14:53:58.939Z,110.03
2019-02-28T14:56:28.485Z,115.15
2019-02-28T14:58:58.131Z,116.40
2019-02-28T15:01:27.696Z,105.47
2019-02-28T15:03:57.306Z,114.52
2019-02-28T15:06:29.607Z,105.17
2019-02-28T15:08:58.201Z,112.77
2019-02-28T15:11:28.645Z,114.20
2019-02-28T15:13:58.213Z,103.50
2019-02-28T15:16:29.568Z,112.92
2019-02-28T15:19:00.660Z,111.92
2019-02-28T15:21:30.224Z,115.00
2019-02-28T15:23:59.863Z,105.95
2019-02-28T15:26:32.156Z,108.67
2019-02-28T15:29:00.786Z,112.77
2019-02-28T15:31:30.384Z,106.70
2019-02-28T15:34:02.242Z,108.83
2019-02-28T15:36:32.588Z,106.90
2019-02-28T15:39:02.155Z,109.42
2019-02-28T15:41:33.703Z,103.67
2019-02-28T15:44:04.402Z,116.82
2019-02-28T15:46:35.904Z,111.12
2019-02-28T15:49:06.456Z,113.10
2019-02-28T15:51:37.505Z,109.00
2019-02-28T15:54:07.069Z,112.07
2019-02-28T15:56:36.662Z,120.00
2019-02-28T15:59:06.361Z,109.52
2019-02-28T16:01:36.001Z,115.85
2019-02-28T16:04:05.672Z,106.35
2019-02-28T16:06:35.210Z,113.80
2019-02-28T16:09:07.465Z,110.15
2019-02-28T16:11:41.025Z,107.80
2019-02-28T16:14:14.528Z,117.75
2019-02-28T16:16:40.946Z,122.30
2019-02-28T16:19:11.883Z,109.45
2019-02-28T16:21:44.801Z,117.50
2019-02-28T16:24:16.287Z,115.23
2019-02-28T16:26:45.819Z,110.80
2019-02-28T16:29:20.404Z,117.80
2019-02-28T16:31:46.694Z,120.60
2019-02-28T16:34:16.238Z,112.22
2019-02-28T16:36:45.865Z,115.30
2019-02-28T16:39:16.898Z,117.53
2019-02-28T16:41:46.793Z,115.12
2019-02-28T16:44:16.364Z,111.80
2019-02-28T16:46:46.434Z,119.65
2019-02-28T16:49:17.345Z,111.93
2019-02-28T16:51:46.916Z,115.40
2019-02-28T16:54:19.408Z,120.40
2019-02-28T16:56:47.727Z,114.70
2019-02-28T16:59:17.304Z,114.50
2019-02-28T17:01:46.850Z,120.93
2019-02-28T17:04:17.209Z,107.63
2019-02-28T17:06:48.527Z,116.75
2019-02-28T17:09:22.174Z,116.80
2019-02-28T17:11:58.926Z,112.00
2019-02-28T17:14:28.535Z,109.67
2019-02-28T17:17:03.918Z,123.22
2019-02-28T17:19:33.475Z,116.43
2019-02-28T17:22:03.464Z,118.85
2019-02-28T17:24:33.013Z,111.92
2019-02-28T17:27:25.390Z,114.45
2019-02-28T17:30:00.438Z,114.07
2019-02-28T17:32:31.216Z,114.43
2019-02-28T17:35:01.820Z,124.80
2019-02-28T17:37:32.137Z,113.50
2019-02-28T17:40:01.745Z,115.00
2019-02-28T17:42:31.757Z,110.17
2019-02-28T17:45:15.506Z,113.08
2019-02-28T17:48:52.632Z,111.42
2019-02-28T17:52:01.609Z,119.50
2019-02-28T17:55:12.749Z,118.47
2019-02-28T17:58:13.419Z,113.23
2019-02-28T18:01:38.717Z,114.34
2019-02-28T18:04:36.201Z,108.10
2019-02-28T18:07:45.738Z,117.28
2019-02-28T18:11:11.667Z,108.30
2019-02-28T18:14:22.717Z,115.83
2019-02-28T18:17:32.384Z,111.62
2019-02-28T18:20:28.991Z,113.17
2019-02-28T18:23:37.854Z,117.22
2019-02-28T18:26:39.440Z,131.97
2019-02-28T18:29:38.364Z,119.90
2019-02-28T18:32:07.902Z,126.72
2019-02-28T18:34:37.903Z,131.43
2019-02-28T18:37:07.509Z,129.90
2019-02-28T18:39:37.046Z,127.07
2019-02-28T18:42:06.583Z,124.22
2019-02-28T18:44:37.473Z,120.30
2019-02-28T18:47:07.604Z,129.57
2019-02-28T18:49:37.196Z,122.55
2019-02-28T18:52:06.754Z,125.87
2019-02-28T18:54:36.378Z,128.30
2019-02-28T18:57:05.982Z,125.85
2019-02-28T18:59:35.528Z,126.87
2019-02-28T19:02:05.220Z,130.00
2019-02-28T19:04:34.768Z,140.15
2019-02-28T19:07:04.332Z,146.47
2019-02-28T19:09:33.884Z,148.72
2019-02-28T19:12:03.418Z,143.40
2019-02-28T19:14:32.961Z,130.85
2019-02-28T19:17:02.508Z,140.32
2019-02-28T19:19:32.055Z,149.30
2019-02-28T19:22:01.585Z,140.70
2019-02-28T19:24:31.120Z,126.40
2019-02-28T19:27:00.653Z,125.02
2019-02-28T19:29:31.167Z,119.72
2019-02-28T19:32:00.729Z,111.90
2019-02-28T19:34:30.336Z,105.07
2019-02-28T19:36:59.867Z,102.45
2019-02-28T19:39:30.357Z,102.40
2019-02-28T19:41:59.943Z,104.75
2019-02-28T19:44:29.463Z,103.70
2019-02-28T19:46:59.075Z,100.72
2019-02-28T19:52:08.859Z,104.95
2019-02-28T19:54:38.389Z,101.80
2019-02-28T19:57:07.912Z,107.72
2019-02-28T19:59:37.441Z,101.87
2019-02-28T20:02:06.987Z,110.13
2019-02-28T20:04:36.574Z,97.90
2019-02-28T20:07:06.148Z,95.90
2019-02-28T20:09:35.684Z,93.90
2019-02-28T20:12:05.300Z,105.40
2019-02-28T20:14:34.832Z,97.23
2019-02-28T20:17:04.465Z,96.50
2019-02-28T20:19:34.019Z,88.50
2019-02-28T20:22:03.588Z,94.47
2019-02-28T20:24:33.144Z,92.08
2019-02-28T20:27:02.679Z,90.85
2019-02-28T20:29:32.303Z,86.80
2019-02-28T20:32:01.848Z,83.30
2019-02-28T20:34:31.364Z,94.83
2019-02-28T20:37:00.915Z,91.60
2019-02-28T20:39:30.614Z,82.87
2019-02-28T20:42:00.165Z,86.80
2019-02-28T20:44:29.686Z,80.10
2019-02-28T20:46:59.209Z,88.57
2019-02-28T20:49:28.743Z,84.97
2019-02-28T20:51:58.278Z,85.30
2019-02-28T20:54:27.841Z,83.27
2019-02-28T20:56:57.657Z,83.70
2019-02-28T20:59:27.207Z,89.00
2019-02-28T21:01:57.730Z,78.10
2019-02-28T21:04:27.274Z,84.62
2019-02-28T21:06:56.821Z,86.22
2019-02-28T21:09:27.132Z,85.53
2019-02-28T21:11:56.671Z,79.27
2019-02-28T21:14:26.277Z,82.07
2019-02-28T21:16:55.913Z,77.93
2019-02-28T21:19:25.431Z,74.00
2019-02-28T21:21:54.983Z,70.93
2019-02-28T21:24:24.530Z,75.83
2019-02-28T21:26:54.095Z,82.37
2019-02-28T21:29:23.613Z,74.03
2019-02-28T21:31:53.174Z,75.32
2019-02-28T21:34:22.792Z,75.42
2019-02-28T21:36:52.360Z,74.05
2019-02-28T21:39:23.373Z,67.78
2019-02-28T21:41:53.346Z,72.73
2019-02-28T21:44:22.941Z,75.10
2019-02-28T21:46:52.502Z,78.05
2019-02-28T21:49:22.048Z,81.80
2019-02-28T21:51:51.648Z,82.35
2019-02-28T21:54:21.175Z,86.65
2019-02-28T21:56:50.805Z,74.92
2019-02-28T21:59:20.477Z,76.25
2019-02-28T22:01:50.079Z,83.35
2019-02-28T22:04:34.304Z,85.70
2019-02-28T22:07:03.898Z,89.85
2019-02-28T22:09:33.445Z,84.62
2019-02-28T22:12:02.979Z,87.30
2019-02-28T22:14:32.503Z,85.87
2019-02-28T22:17:02.066Z,88.40
2019-02-28T22:19:31.595Z,82.33
2019-02-28T22:22:01.369Z,97.10
2019-02-28T22:24:30.908Z,93.47
2019-02-28T22:27:00.585Z,101.92
2019-02-28T22:29:30.319Z,97.42
2019-02-28T22:32:24.504Z,103.92
2019-02-28T22:35:04.552Z,112.70
2019-02-28T22:37:34.103Z,109.92
2019-02-28T22:40:04.102Z,111.40
2019-02-28T22:42:33.664Z,105.70
2019-02-28T22:45:03.358Z,111.00
2019-02-28T22:47:33.219Z,124.38
2019-02-28T22:50:02.792Z,104.87
2019-02-28T22:52:32.332Z,122.25
2019-02-28T22:55:03.133Z,112.10
2019-02-28T22:57:32.699Z,115.23
2019-02-28T23:00:02.644Z,107.93
2019-02-28T23:02:33.982Z,99.00
2019-02-28T23:05:03.550Z,108.80
2019-02-28T23:07:33.195Z,112.60
2019-02-28T23:10:02.730Z,93.78
2019-02-28T23:12:32.304Z,90.27
2019-02-28T23:15:01.872Z,92.57
2019-02-28T23:17:33.066Z,93.70
2019-02-28T23:20:02.694Z,88.70
2019-02-28T23:22:32.292Z,93.30
2019-02-28T23:25:01.856Z,90.10
2019-02-28T23:27:31.385Z,86.35
2019-02-28T23:30:30.187Z,89.20
2019-02-28T23:33:05.719Z,91.50
2019-02-28T23:35:41.028Z,82.70
2019-02-28T23:38:10.520Z,87.10
2019-02-28T23:40:40.123Z,77.95
2019-02-28T23:43:09.641Z,81.45
2019-02-28T23:45:39.182Z,89.15
2019-02-28T23:48:08.725Z,92.80
2019-02-28T23:50:38.331Z,92.63
2019-02-28T23:53:07.896Z,94.83
2019-02-28T23:55:37.454Z,90.47
2019-02-28T23:58:07.022Z,91.27
